Time;durP1;ratioP1;P1;durP2;ratioP2;P2;SDS_P1;SDS_P2;PMS_P1;PMS_P2;Temp;Humidity;BMP_temperature;BMP_pressure;BME280_temperature;BME280_humidity;BME280_pressure;Samples;Min_cycle;Max_cycle;Signal;HPM_P1;HPM_P2
2023/04/15 00:01:22;;;;;;;5.10;3.33;;;13.40;80.50;;;;;;10983976;32;20018;-74
2023/04/15 00:07:24;;;;;;;4.72;3.35;;;13.40;80.20;;;;;;10969534;32;20034;-74
2023/04/15 00:13:27;;;;;;;5.93;2.97;;;13.30;80.40;;;;;;10970497;32;20053;-74
2023/04/15 00:19:30;;;;;;;4.65;2.60;;;13.20;80.90;;;;;;10983347;32;20049;-74
2023/04/15 00:25:32;;;;;;;2.58;2.30;;;13.20;80.80;;;;;;10983647;32;20019;-74
2023/04/15 00:31:34;;;;;;;7.28;4.40;;;13.00;80.90;;;;;;10983263;32;20018;-74
2023/04/15 00:37:36;;;;;;;3.00;2.58;;;12.90;80.90;;;;;;10978703;32;20022;-74
2023/04/15 00:43:38;;;;;;;3.10;2.25;;;12.80;81.30;;;;;;10981726;32;20051;-74
2023/04/15 00:49:41;;;;;;;5.18;3.72;;;12.70;81.30;;;;;;10968672;32;20037;-74
2023/04/15 00:55:43;;;;;;;4.57;3.17;;;12.70;81.30;;;;;;10969724;32;20258;-74
2023/04/15 01:01:46;;;;;;;4.12;2.65;;;12.60;81.90;;;;;;10982331;32;20019;-74
2023/04/15 01:07:48;;;;;;;3.50;2.92;;;12.50;81.70;;;;;;10982575;32;20081;-74
2023/04/15 01:13:51;;;;;;;4.10;2.85;;;12.60;81.70;;;;;;10982564;32;20414;-74
2023/04/15 01:19:56;;;;;;;3.58;3.28;;;12.50;82.20;;;;;;10982285;32;20034;-73
2023/04/15 01:25:59;;;;;;;2.58;1.73;;;12.70;82.20;;;;;;10981966;32;20061;-74
2023/04/15 01:32:01;;;;;;;4.32;3.20;;;12.60;82.20;;;;;;10966772;32;20032;-74
2023/04/15 01:38:07;;;;;;;2.58;2.12;;;12.50;82.20;;;;;;10981668;32;20018;-74
2023/04/15 01:44:10;;;;;;;4.00;2.75;;;12.40;81.90;;;;;;10981019;32;20049;-74
2023/04/15 01:50:14;;;;;;;2.42;1.60;;;12.20;82.10;;;;;;10967886;32;20454;-74
2023/04/15 01:56:17;;;;;;;2.83;1.75;;;12.10;82.70;;;;;;10966332;32;20031;-74
2023/04/15 02:02:19;;;;;;;1.75;1.48;;;12.20;82.90;;;;;;10965920;32;20168;-74
2023/04/15 02:08:22;;;;;;;2.58;1.90;;;12.20;82.80;;;;;;10979401;32;20026;-74
2023/04/15 02:14:24;;;;;;;2.92;2.10;;;12.20;82.70;;;;;;10979158;32;20084;-74
2023/04/15 02:20:29;;;;;;;2.03;1.12;;;12.20;82.80;;;;;;10976328;32;20080;-74
2023/04/15 02:26:32;;;;;;;1.05;0.98;;;12.20;82.60;;;;;;10977011;32;20049;-73
2023/04/15 02:32:36;;;;;;;1.35;1.20;;;12.30;82.50;;;;;;10980230;32;20439;-74
2023/04/15 02:38:42;;;;;;;2.45;1.77;;;12.20;82.60;;;;;;10978793;32;20077;-74
2023/04/15 02:44:44;;;;;;;1.48;1.20;;;12.20;82.60;;;;;;10979894;32;20389;-74
2023/04/15 02:50:46;;;;;;;2.80;2.05;;;12.20;82.50;;;;;;10975146;32;20335;-74
2023/04/15 02:56:49;;;;;;;2.00;1.25;;;12.20;82.60;;;;;;10985991;32;20054;-74
2023/04/15 03:02:56;;;;;;;2.33;1.45;;;12.30;82.60;;;;;;10984591;32;20061;-74
2023/04/15 03:08:59;;;;;;;2.08;1.62;;;12.30;82.50;;;;;;10973610;32;20041;-74
2023/04/15 03:15:03;;;;;;;3.58;2.30;;;12.30;82.40;;;;;;10986299;32;20037;-74
2023/04/15 03:21:07;;;;;;;3.25;2.10;;;12.20;82.70;;;;;;10985127;32;20045;-74
2023/04/15 03:27:09;;;;;;;4.00;2.90;;;12.30;82.40;;;;;;10971444;32;20371;-74
2023/04/15 03:33:12;;;;;;;3.65;2.45;;;12.30;82.30;;;;;;10972191;32;20023;-74
2023/04/15 03:39:14;;;;;;;5.97;2.10;;;12.20;82.00;;;;;;10985391;32;20014;-74
2023/04/15 03:45:16;;;;;;;4.10;1.73;;;12.20;82.10;;;;;;10981822;32;20383;-74
2023/04/15 03:51:18;;;;;;;6.97;3.20;;;12.20;82.40;;;;;;10984313;32;20041;-74
2023/04/15 03:57:21;;;;;;;2.90;2.35;;;12.00;82.70;;;;;;10985345;32;20377;-74
2023/04/15 04:03:23;;;;;;;2.83;2.50;;;11.90;83.00;;;;;;10984859;32;20040;-74
2023/04/15 04:09:25;;;;;;;5.50;4.93;;;11.80;83.20;;;;;;10985499;32;20380;-74
2023/04/15 04:15:27;;;;;;;3.95;2.67;;;11.80;83.40;;;;;;10969287;32;20053;-74
2023/04/15 04:21:29;;;;;;;5.87;3.72;;;11.70;83.50;;;;;;10984013;32;20038;-74
2023/04/15 04:27:31;;;;;;;4.62;3.58;;;11.80;83.60;;;;;;10966601;32;20026;-74
2023/04/15 04:33:34;;;;;;;4.28;2.85;;;11.80;83.40;;;;;;10984028;32;20029;-74
2023/04/15 04:39:36;;;;;;;6.95;3.95;;;11.60;83.80;;;;;;10969122;32;20348;-74
2023/04/15 04:45:38;;;;;;;8.02;4.50;;;11.70;84.10;;;;;;10983584;32;20045;-74
2023/04/15 04:51:40;;;;;;;4.87;3.90;;;11.70;84.10;;;;;;10982955;32;20053;-74
2023/04/15 04:57:43;;;;;;;3.85;3.05;;;11.80;84.10;;;;;;10981321;32;20026;-74
2023/04/15 05:03:45;;;;;;;5.40;3.65;;;11.90;84.30;;;;;;10981871;32;20026;-74
2023/04/15 05:09:47;;;;;;;4.85;3.55;;;12.00;84.20;;;;;;10982767;32;20015;-75
2023/04/15 05:15:49;;;;;;;2.80;1.85;;;12.10;84.30;;;;;;10981415;32;20046;-74
2023/04/15 05:21:52;;;;;;;6.70;5.30;;;12.20;84.40;;;;;;10967426;32;20045;-74
2023/04/15 05:27:54;;;;;;;4.72;2.95;;;12.30;84.60;;;;;;10979954;32;20019;-74
2023/04/15 05:33:56;;;;;;;6.10;4.30;;;12.20;84.70;;;;;;10981231;32;20385;-74
2023/04/15 05:39:59;;;;;;;5.45;3.17;;;12.30;85.00;;;;;;10981555;32;20006;-74
2023/04/15 05:46:01;;;;;;;5.37;3.45;;;12.40;84.90;;;;;;10980178;32;20023;-74
2023/04/15 05:52:03;;;;;;;3.65;3.08;;;12.30;84.90;;;;;;10980557;32;20018;-74
2023/04/15 05:58:05;;;;;;;8.07;5.70;;;12.20;85.10;;;;;;10977563;32;20026;-73
2023/04/15 06:04:08;;;;;;;7.60;3.37;;;12.20;85.30;;;;;;10980834;32;20040;-74
2023/04/15 06:10:10;;;;;;;3.45;2.42;;;12.20;85.40;;;;;;10980774;32;20014;-73
2023/04/15 06:16:12;;;;;;;8.98;6.45;;;12.30;85.30;;;;;;10976347;32;20053;-74
2023/04/15 06:22:15;;;;;;;5.87;3.80;;;12.40;85.30;;;;;;10980404;32;20018;-74
2023/04/15 06:28:17;;;;;;;6.25;4.90;;;12.30;85.40;;;;;;10977588;32;20060;-74
2023/04/15 06:34:19;;;;;;;9.38;5.45;;;12.40;85.30;;;;;;10964543;32;20070;-74
2023/04/15 06:40:22;;;;;;;12.57;5.75;;;12.30;85.30;;;;;;10979261;32;20389;-74
2023/04/15 06:46:24;;;;;;;8.90;6.35;;;12.30;85.60;;;;;;10965929;32;20027;-74
2023/04/15 06:52:26;;;;;;;6.87;5.20;;;12.30;85.80;;;;;;10979187;32;20015;-74
2023/04/15 06:58:28;;;;;;;6.75;3.92;;;12.40;85.90;;;;;;10979746;32;20321;-74
2023/04/15 07:04:30;;;;;;;6.85;5.22;;;12.40;85.80;;;;;;10979542;32;20428;-74
2023/04/15 07:10:33;;;;;;;6.03;4.50;;;12.70;85.60;;;;;;10978754;32;20019;-74
2023/04/15 07:16:35;;;;;;;6.32;3.40;;;12.70;85.50;;;;;;10964372;32;20096;-74
2023/04/15 07:22:37;;;;;;;6.57;3.85;;;12.70;85.40;;;;;;10979319;32;20321;-74
2023/04/15 07:28:40;;;;;;;4.90;3.28;;;12.90;85.70;;;;;;10978536;32;20050;-73
2023/04/15 07:34:43;;;;;;;5.70;3.60;;;13.10;85.60;;;;;;10979111;32;20015;-74
2023/04/15 07:40:45;;;;;;;10.68;4.90;;;13.20;85.50;;;;;;10983337;32;20023;-73
2023/04/15 07:46:47;;;;;;;6.40;3.95;;;13.40;85.50;;;;;;10985207;32;20030;-74
2023/04/15 07:52:51;;;;;;;4.45;3.05;;;13.50;84.90;;;;;;10700707;27;6944437;-74
2023/04/15 07:58:53;;;;;;;6.35;4.15;;;13.60;84.90;;;;;;10872536;32;20420;-73
2023/04/15 08:04:56;;;;;;;5.75;3.20;;;13.60;85.10;;;;;;10872346;32;20024;-74
2023/04/15 08:10:58;;;;;;;8.93;5.15;;;13.70;84.90;;;;;;10857983;32;20028;-74
2023/04/15 08:17:00;;;;;;;4.60;3.22;;;13.70;84.70;;;;;;10870273;32;20043;-73
2023/04/15 08:23:03;;;;;;;5.60;3.67;;;13.70;84.40;;;;;;10868322;32;20023;-74
2023/04/15 08:29:05;;;;;;;4.05;2.60;;;13.90;84.10;;;;;;10871023;32;20046;-73
2023/04/15 08:35:08;;;;;;;7.35;3.33;;;14.10;84.10;;;;;;10854204;32;20035;-74
2023/04/15 08:41:25;;;;;;;4.80;3.15;;;14.20;84.10;;;;;;10868741;32;20007;-73
2023/04/15 08:47:32;;;;;;;4.50;3.45;;;14.20;83.80;;;;;;10867941;32;20028;-73
2023/04/15 08:53:35;;;;;;;12.70;4.65;;;14.30;84.30;;;;;;10869350;32;20042;-74
2023/04/15 08:59:37;;;;;;;5.47;3.37;;;14.50;83.90;;;;;;10851825;32;20417;-74
2023/04/15 09:05:40;;;;;;;10.13;2.92;;;14.60;83.10;;;;;;10870333;32;20472;-74
2023/04/15 09:11:42;;;;;;;6.07;4.03;;;14.70;82.70;;;;;;10870031;32;20020;-73
2023/04/15 09:17:45;;;;;;;5.90;3.60;;;14.60;82.60;;;;;;10869846;32;20386;-74
2023/04/15 09:23:59;;;;;;;4.35;3.00;;;14.70;82.80;;;;;;10866116;32;20023;-74
2023/04/15 09:30:01;;;;;;;9.45;4.75;;;15.00;82.50;;;;;;10869205;32;20038;-73
2023/04/15 09:36:05;;;;;;;5.97;2.75;;;15.00;82.70;;;;;;10868605;32;20039;-73
2023/04/15 09:42:07;;;;;;;4.10;3.03;;;15.10;82.40;;;;;;10855414;32;20023;-74
2023/04/15 09:48:20;;;;;;;14.48;4.37;;;15.00;82.00;;;;;;10867325;32;20055;-75
2023/04/15 09:54:22;;;;;;;5.62;3.83;;;15.20;81.80;;;;;;10852650;32;20326;-73
2023/04/15 10:00:24;;;;;;;10.15;3.95;;;15.40;81.60;;;;;;10868337;32;20016;-73
2023/04/15 10:06:27;;;;;;;6.18;4.07;;;15.30;81.50;;;;;;10842318;32;20023;-74
2023/04/15 10:12:32;;;;;;;2.30;1.70;;;15.40;81.50;;;;;;10814344;32;20389;-74
2023/04/15 10:18:37;;;;;;;2.87;2.25;;;15.50;81.70;;;;;;10815333;33;20386;-74
2023/04/15 10:24:39;;;;;;;3.03;2.47;;;15.70;81.90;;;;;;10815484;32;20058;-74
2023/04/15 10:30:42;;;;;;;5.97;3.30;;;16.00;80.60;;;;;;10829279;32;20015;-73
2023/04/15 10:36:46;;;;;;;4.03;2.45;;;16.00;79.90;;;;;;10815977;32;20097;-74
2023/04/15 10:42:48;;;;;;;2.35;2.10;;;15.80;80.20;;;;;;10830305;33;20008;-74
2023/04/15 10:48:53;;;;;;;4.28;2.22;;;16.10;81.30;;;;;;10826988;33;20441;-75
2023/04/15 10:55:15;;;;;;;2.75;1.90;;;16.50;81.00;;;;;;10815351;33;20058;-74
2023/04/15 11:01:22;;;;;;;5.12;2.62;;;16.90;79.60;;;;;;10829458;33;20042;-74
2023/04/15 11:07:40;;;;;;;5.65;3.17;;;17.30;77.10;;;;;;10817036;33;20035;-72
2023/04/15 11:13:51;;;;;;;3.83;2.27;;;17.60;75.10;;;;;;10829640;32;20032;-72
2023/04/15 11:19:54;;;;;;;3.58;2.47;;;18.00;75.10;;;;;;10837337;32;20350;-72
2023/04/15 11:25:58;;;;;;;5.70;2.78;;;18.10;74.70;;;;;;10836085;32;20020;-74
2023/04/15 11:32:09;;;;;;;14.65;2.90;;;18.00;74.40;;;;;;10836441;32;20073;-72
2023/04/15 11:38:13;;;;;;;4.22;2.35;;;17.80;75.80;;;;;;10835686;32;20046;-72
2023/04/15 11:44:17;;;;;;;7.53;2.67;;;17.90;75.30;;;;;;10821352;32;20040;-72
2023/04/15 11:50:23;;;;;;;3.67;1.17;;;18.10;73.70;;;;;;10835022;32;20059;-72
2023/04/15 11:56:26;;;;;;;5.30;2.55;;;17.90;74.80;;;;;;10835398;32;20019;-72
2023/04/15 12:02:32;;;;;;;8.10;2.20;;;17.80;74.40;;;;;;10822069;32;20322;-72
2023/04/15 12:08:58;;;;;;;6.12;1.87;;;18.30;71.20;;;;;;10832883;32;20040;-74
2023/04/15 12:15:01;;;;;;;3.60;2.28;;;18.40;69.70;;;;;;10832668;32;20024;-74
2023/04/15 12:21:10;;;;;;;4.93;2.22;;;18.40;68.90;;;;;;10861706;32;20024;-75
2023/04/15 12:27:15;;;;;;;3.30;2.12;;;18.40;67.80;;;;;;10840244;32;20032;-73
2023/04/15 12:33:17;;;;;;;3.37;1.80;;;18.70;67.50;;;;;;10857704;32;20042;-73
2023/04/15 12:39:27;;;;;;;5.47;2.45;;;19.10;68.90;;;;;;10870030;32;20062;-72
2023/04/15 12:45:29;;;;;;;3.58;1.80;;;19.30;66.80;;;;;;10870932;32;20081;-73
2023/04/15 12:51:31;;;;;;;1.33;1.15;;;19.30;65.50;;;;;;10864172;32;20352;-73
2023/04/15 12:57:33;;;;;;;4.10;1.87;;;19.30;66.00;;;;;;10867009;32;20024;-73
2023/04/15 13:03:35;;;;;;;4.07;2.17;;;19.40;65.20;;;;;;10870160;32;20016;-73
2023/04/15 13:09:38;;;;;;;1.92;1.40;;;19.20;64.80;;;;;;10870408;32;20023;-73
2023/04/15 13:15:41;;;;;;;3.33;1.60;;;19.30;65.50;;;;;;10869056;32;20211;-73
2023/04/15 13:21:43;;;;;;;8.52;2.37;;;18.80;64.70;;;;;;10869004;32;20043;-73
2023/04/15 13:27:45;;;;;;;6.22;2.20;;;18.60;66.70;;;;;;10865168;32;20402;-72
2023/04/15 13:33:47;;;;;;;6.87;2.28;;;18.90;68.30;;;;;;10868526;32;20401;-73
2023/04/15 13:39:49;;;;;;;11.70;2.45;;;18.50;67.80;;;;;;10853092;32;20035;-73
2023/04/15 13:45:51;;;;;;;7.40;2.92;;;18.20;67.90;;;;;;10853681;32;20064;-73
2023/04/15 13:51:53;;;;;;;12.23;2.87;;;17.90;67.90;;;;;;10854313;32;20023;-73
2023/04/15 13:57:56;;;;;;;9.98;3.30;;;17.90;69.00;;;;;;10854927;32;20050;-72
2023/04/15 14:03:58;;;;;;;8.73;3.10;;;18.20;69.90;;;;;;10853241;32;20311;-72
2023/04/15 14:10:00;;;;;;;6.10;1.95;;;18.60;68.90;;;;;;10866910;32;20032;-72
2023/04/15 14:16:02;;;;;;;6.72;2.12;;;18.80;67.30;;;;;;10864519;32;20058;-72
2023/04/15 14:22:04;;;;;;;3.05;2.10;;;18.70;66.30;;;;;;10864428;32;20421;-72
2023/04/15 14:28:07;;;;;;;8.50;2.90;;;18.30;66.80;;;;;;10853458;32;20565;-72
2023/04/15 14:34:09;;;;;;;6.28;1.75;;;18.30;66.40;;;;;;10866607;32;20024;-72
2023/04/15 14:40:10;;;;;;;8.48;2.80;;;18.40;65.40;;;;;;10867038;32;20425;-73
2023/04/15 14:46:13;;;;;;;9.00;2.75;;;18.20;65.20;;;;;;10861733;32;20023;-72
2023/04/15 14:52:15;;;;;;;8.80;3.30;;;17.90;64.50;;;;;;10871743;32;20047;-72
2023/04/15 14:58:17;;;;;;;6.70;3.37;;;17.90;64.00;;;;;;10873811;32;20024;-72
2023/04/15 15:04:19;;;;;;;2.78;1.83;;;18.00;64.00;;;;;;10872728;32;20011;-72
2023/04/15 15:10:21;;;;;;;3.72;1.20;;;17.70;65.70;;;;;;10859011;32;20066;-72
2023/04/15 15:16:24;;;;;;;3.28;1.15;;;17.30;68.00;;;;;;10857868;32;20053;-72
2023/04/15 15:22:26;;;;;;;1.83;0.90;;;17.20;69.10;;;;;;10872546;32;20083;-72
2023/04/15 15:28:28;;;;;;;8.10;1.67;;;17.00;70.50;;;;;;10872753;32;20051;-72
2023/04/15 15:34:30;;;;;;;2.58;1.92;;;17.00;71.50;;;;;;10873169;32;20046;-72
2023/04/15 15:40:32;;;;;;;1.80;0.90;;;16.90;72.90;;;;;;10859617;32;20011;-71
2023/04/15 15:46:34;;;;;;;3.12;1.52;;;16.90;73.00;;;;;;10872760;32;20047;-72
2023/04/15 15:52:36;;;;;;;3.60;2.00;;;17.10;73.00;;;;;;10874828;27;20358;-72
2023/04/15 15:58:38;;;;;;;3.72;2.00;;;17.10;74.00;;;;;;10866014;32;20042;-72
2023/04/15 16:04:42;;;;;;;3.67;2.12;;;17.20;74.20;;;;;;10858924;32;20085;-72
2023/04/15 16:10:44;;;;;;;3.85;1.67;;;17.30;74.20;;;;;;10870888;32;20039;-72
2023/04/15 16:16:46;;;;;;;3.62;1.80;;;17.40;73.80;;;;;;10820805;32;20028;-72
2023/04/15 16:22:49;;;;;;;3.92;2.10;;;17.30;72.50;;;;;;10821175;32;20280;-72
2023/04/15 16:28:51;;;;;;;2.20;1.60;;;17.10;72.70;;;;;;10833682;32;20082;-72
2023/04/15 16:34:53;;;;;;;1.42;1.10;;;17.30;72.50;;;;;;10830412;32;20334;-72
2023/04/15 16:40:58;;;;;;;3.30;1.62;;;17.30;72.30;;;;;;10815777;33;20059;-72
2023/04/15 16:47:01;;;;;;;1.80;1.52;;;17.10;72.30;;;;;;10833591;32;20020;-72
2023/04/15 16:53:03;;;;;;;2.75;1.77;;;16.90;72.90;;;;;;10819597;32;20028;-72
2023/04/15 16:59:05;;;;;;;3.58;2.25;;;16.80;73.50;;;;;;10833151;32;20046;-72
2023/04/15 17:05:08;;;;;;;2.40;1.70;;;16.80;73.80;;;;;;10832950;32;20405;-72
2023/04/15 17:11:10;;;;;;;5.97;2.95;;;17.90;72.30;;;;;;10831876;32;20016;-72
2023/04/15 17:17:12;;;;;;;8.25;3.33;;;19.10;71.80;;;;;;10831634;32;20315;-70
2023/04/15 17:23:14;;;;;;;3.72;2.50;;;18.80;72.30;;;;;;10819634;32;20047;-70
2023/04/15 17:29:16;;;;;;;4.62;2.28;;;18.20;73.70;;;;;;10854342;32;20036;-70
2023/04/15 17:35:19;;;;;;;6.00;2.17;;;17.70;74.70;;;;;;10868871;32;19999;-70
2023/04/15 17:41:21;;;;;;;4.95;2.75;;;17.70;74.90;;;;;;10856176;32;20051;-71
2023/04/15 17:47:23;;;;;;;3.62;2.37;;;17.80;74.30;;;;;;10868613;32;20015;-71
2023/04/15 17:53:25;;;;;;;7.43;3.53;;;17.40;74.70;;;;;;10864591;32;20011;-70
2023/04/15 17:59:28;;;;;;;6.65;3.30;;;17.10;75.30;;;;;;10867738;32;20019;-70
2023/04/15 18:05:30;;;;;;;4.00;2.40;;;16.80;75.60;;;;;;10867024;32;20050;-72
2023/04/15 18:11:32;;;;;;;3.20;1.92;;;16.60;76.00;;;;;;10849972;32;20028;-72
2023/04/15 18:17:35;;;;;;;3.55;2.00;;;16.30;76.30;;;;;;10867986;32;20330;-71
2023/04/15 18:23:37;;;;;;;3.78;2.20;;;16.20;76.90;;;;;;10854854;32;20008;-71
2023/04/15 18:29:39;;;;;;;2.83;1.62;;;16.10;77.30;;;;;;10887496;32;20023;-71
2023/04/15 18:35:41;;;;;;;4.45;2.80;;;15.90;77.40;;;;;;10889830;32;20070;-71
2023/04/15 18:41:43;;;;;;;2.17;1.65;;;15.70;77.70;;;;;;10889697;32;20426;-71
2023/04/15 18:47:45;;;;;;;2.70;1.95;;;15.50;78.10;;;;;;10899930;32;20023;-71
2023/04/15 18:53:47;;;;;;;2.33;1.75;;;15.50;78.30;;;;;;10903269;32;20065;-71
2023/04/15 18:59:49;;;;;;;2.72;1.90;;;15.50;78.20;;;;;;10904256;32;20019;-71
2023/04/15 19:05:52;;;;;;;1.73;1.58;;;15.40;78.20;;;;;;10904154;32;20062;-72
2023/04/15 19:11:55;;;;;;;3.67;2.17;;;15.40;78.10;;;;;;10904325;32;20385;-71
2023/04/15 19:17:57;;;;;;;2.65;2.20;;;15.40;78.10;;;;;;10903746;32;20041;-71
2023/04/15 19:23:59;;;;;;;2.55;1.92;;;15.20;78.40;;;;;;10902872;32;20015;-71
2023/04/15 19:30:03;;;;;;;3.95;2.50;;;15.20;78.60;;;;;;10903713;32;20424;-71
2023/04/15 19:36:06;;;;;;;3.67;2.65;;;15.10;78.90;;;;;;10888161;32;20058;-71
2023/04/15 19:42:08;;;;;;;6.43;3.70;;;15.10;78.70;;;;;;10910508;32;20015;-71
2023/04/15 19:48:10;;;;;;;4.93;3.55;;;15.00;78.60;;;;;;10909203;32;20035;-71
2023/04/15 19:54:12;;;;;;;2.53;2.17;;;14.70;79.00;;;;;;10909403;32;20097;-71
2023/04/15 20:00:14;;;;;;;3.28;2.28;;;14.70;79.60;;;;;;10908706;32;20015;-71
2023/04/15 20:06:16;;;;;;;4.60;2.75;;;14.70;79.40;;;;;;10895093;32;20039;-71
2023/04/15 20:12:18;;;;;;;2.70;2.20;;;14.70;79.50;;;;;;10908752;32;20049;-71
2023/04/15 20:18:20;;;;;;;3.17;2.35;;;14.70;79.50;;;;;;10908872;32;20046;-71
2023/04/15 20:24:23;;;;;;;4.47;3.28;;;14.70;79.50;;;;;;10904386;32;20059;-71
2023/04/15 20:30:25;;;;;;;3.47;2.30;;;14.60;79.70;;;;;;10908403;32;20329;-73
2023/04/15 20:36:27;;;;;;;6.65;2.75;;;14.60;79.60;;;;;;10893681;32;20027;-72
2023/04/15 20:42:35;;;;;;;9.27;3.05;;;14.50;79.90;;;;;;10906706;32;20337;-72
2023/04/15 20:48:38;;;;;;;2.25;2.05;;;14.40;80.00;;;;;;10908179;32;20397;-72
2023/04/15 20:54:40;;;;;;;3.05;2.50;;;14.30;79.90;;;;;;10877151;32;20039;-72
2023/04/15 21:00:44;;;;;;;3.75;2.80;;;14.20;80.10;;;;;;10895196;32;20399;-72
2023/04/15 21:06:46;;;;;;;2.83;2.03;;;14.10;79.90;;;;;;10891303;32;20027;-72
2023/04/15 21:12:48;;;;;;;3.30;2.05;;;14.00;80.40;;;;;;10892515;32;20062;-72
2023/04/15 21:18:51;;;;;;;3.22;2.28;;;14.10;80.60;;;;;;10906153;32;20042;-73
2023/04/15 21:24:53;;;;;;;3.17;2.05;;;14.00;80.60;;;;;;10892388;32;20358;-72
2023/04/15 21:30:56;;;;;;;3.58;2.58;;;14.10;80.80;;;;;;10906707;32;20023;-72
2023/04/15 21:36:59;;;;;;;1.87;1.75;;;14.10;80.80;;;;;;10891597;32;20057;-72
2023/04/15 21:43:01;;;;;;;2.22;2.03;;;14.10;81.00;;;;;;10891478;32;20049;-72
2023/04/15 21:49:05;;;;;;;3.08;2.22;;;13.90;81.10;;;;;;10897987;32;20353;-72
2023/04/15 21:55:07;;;;;;;2.50;2.12;;;13.80;81.30;;;;;;10816421;32;20058;-71
2023/04/15 22:01:10;;;;;;;3.78;2.17;;;13.70;81.30;;;;;;10831002;32;20039;-71
2023/04/15 22:07:12;;;;;;;3.22;2.20;;;13.70;81.30;;;;;;10831084;32;20131;-71
2023/04/15 22:13:15;;;;;;;2.72;2.17;;;13.70;81.30;;;;;;10815944;32;20028;-71
2023/04/15 22:19:44;;;;;;;1.75;1.40;;;13.60;81.40;;;;;;10830889;32;20016;-72
2023/04/15 22:25:46;;;;;;;3.28;2.45;;;13.70;81.20;;;;;;10830566;32;20046;-71
2023/04/15 22:31:49;;;;;;;2.75;2.17;;;13.50;81.30;;;;;;10829296;32;20027;-71
2023/04/15 22:37:52;;;;;;;2.40;1.70;;;13.50;81.30;;;;;;10829460;32;20019;-71
2023/04/15 22:43:54;;;;;;;1.80;1.67;;;13.50;81.10;;;;;;10829560;32;20050;-72
2023/04/15 22:49:56;;;;;;;3.60;2.05;;;13.50;81.10;;;;;;10828868;32;20027;-72
2023/04/15 22:55:59;;;;;;;1.52;1.42;;;13.50;80.90;;;;;;10816131;33;20059;-72
2023/04/15 23:02:01;;;;;;;2.08;1.87;;;13.60;80.70;;;;;;10815439;33;20031;-71
2023/04/15 23:08:03;;;;;;;1.92;1.50;;;13.60;80.30;;;;;;10829549;32;20023;-72
2023/04/15 23:14:05;;;;;;;2.12;1.75;;;13.50;80.50;;;;;;10832144;32;20020;-72
2023/04/15 23:20:34;;;;;;;3.22;2.05;;;13.50;80.80;;;;;;10835933;32;20039;-72
2023/04/15 23:26:36;;;;;;;;;;;13.50;80.60;;;;;;10834121;32;20029;-71
2023/04/15 23:32:38;;;;;;;2.28;1.98;;;13.40;80.80;;;;;;10822197;32;19950;-71
2023/04/15 23:38:42;;;;;;;2.47;1.60;;;13.30;80.80;;;;;;10822635;32;20095;-71
2023/04/15 23:44:47;;;;;;;3.45;2.80;;;13.30;80.50;;;;;;10832719;32;20020;-72
2023/04/15 23:50:49;;;;;;;3.37;2.35;;;13.30;80.10;;;;;;10865545;27;20022;-72
2023/04/15 23:56:51;;;;;;;2.50;1.95;;;13.30;80.20;;;;;;10984986;32;20293;-72
